Terminal Aerodrome Forecast
Issued by NWS

Home | Current Version | Previous Version | Text Only | Print | Product List | Glossary On
Versions: 1 2 3 4 5 6 7 8 9 10 11 12 13
000
FTUS46 KMTR 022334
TAFSJC
TAF
KSJC 022334Z 0300/0324 30009KT P6SM FEW080 SCT140 BKN160
     FM030400 29005KT P6SM SCT200
     FM031100 VRB04KT P6SM SCT015
     FM031600 VRB04KT P6SM FEW018 SCT200
     FM032000 30010KT P6SM BKN200=

USA.gov is the U.S. government's official web portal to all federal, state and local government web resources and services.